Pacific — WCO7745 — position and weather

sailwx.info

Track history (hours):
 
Tides and Currents Weather Stations Pressure Air Temp Water Temp Dewpoint Dewpoint Depression Visibility Wind Speed Wind Dir Waves Ship Positions

Pacific

Owner: WESTERN TOWBOAT CO, SEATTLE, WA. More information available from US FCC via Universal Licensing System and Coast Guard Vessel Documentation Center.

Last reported at 2018-Feb-19 20:35 UTC. Time now 2018-Feb-20 04:23 UTC.
Position N 47°09' W 122°39'.

; draft 4 m.

Type: Tug. MMSI: 366980170.

Date/timePositionNaut miles runAvg speedWind from/ knotsBaromVisibWave heightAir tempDewpointWater temp
2018-Feb-19 20:35N 47°09' W 122°39'1 8.3
2018-Feb-19 20:30N 47°10' W 122°38'4 7.4
2018-Feb-19 20:00N 47°13' W 122°35'3 6.6
2018-Feb-19 19:30N 47°16' W 122°33'3 5.8
2018-Feb-19 19:01N 47°19' W 122°34'3 6.8
2018-Feb-19 18:31N 47°22' W 122°32'4 7.6
2018-Feb-19 18:00N 47°26' W 122°31'4 7.8
2018-Feb-19 17:31N 47°30' W 122°29'4 9.0
2018-Feb-19 17:01N 47°34' W 122°27'4 7.5
2018-Feb-19 16:30N 47°36' W 122°22'3 5.8
2018-Feb-19 16:00N 47°33' W 122°20'1 2.6
2018-Feb-19 15:30N 47°32' W 122°19'2 4.6
2018-Feb-19 15:01N 47°34' W 122°21'0 0.0
2018-Feb-19 14:31N 47°34' W 122°21'0 0.0
2018-Feb-19 14:00N 47°34' W 122°21'  
2018-Feb-17 03:02N 47°34' W 122°21'0 0.0
2018-Feb-17 03:00N 47°34' W 122°21'2 3.0
2018-Feb-17 02:29N 47°33' W 122°20'2 3.5
2018-Feb-17 02:00N 47°34' W 122°21'2 3.8
2018-Feb-17 01:30N 47°36' W 122°22'2 3.5
2018-Feb-17 01:00N 47°37' W 122°24'2 4.4
2018-Feb-17 00:30N 47°39' W 122°27'3 5.3
2018-Feb-17 00:00N 47°41' W 122°28'3 5.7
2018-Feb-16 23:30N 47°44' W 122°28'3 5.7
2018-Feb-16 23:00N 47°47' W 122°27'3 5.6
2018-Feb-16 22:30N 47°49' W 122°28'3 6.2
2018-Feb-16 22:00N 47°52' W 122°29'3 5.9
2018-Feb-16 21:30N 47°55' W 122°31'3 6.3
2018-Feb-16 21:00N 47°57' W 122°35'26 4.8
2018-Feb-16 15:31N 48°22' W 122°46'0 6.5
2018-Feb-16 15:29N 48°22' W 122°46'3 6.1
2018-Feb-16 15:00N 48°25' W 122°45'3 5.6
2018-Feb-16 14:30N 48°28' W 122°45'2 4.7
2018-Feb-16 14:00N 48°30' W 122°45'2 4.2
2018-Feb-16 13:30N 48°32' W 122°45'2 3.6
2018-Feb-16 13:00N 48°34' W 122°46'1 2.1
2018-Feb-16 12:30N 48°35' W 122°45'1 2.1
2018-Feb-16 12:00N 48°36' W 122°45'2 3.3
2018-Feb-16 11:30N 48°38' W 122°44'2 3.6
2018-Feb-16 11:00N 48°39' W 122°44'2 3.8
2018-Feb-16 10:30N 48°41' W 122°44'2 4.6
2018-Feb-16 09:59N 48°43' W 122°46'3 5.8
2018-Feb-16 09:30N 48°45' W 122°49'4 6.5
2018-Feb-16 08:48N 48°48' W 122°55'7 6.4
2018-Feb-16 07:44N 48°52' W 123°03'2 6.2
2018-Feb-16 07:28N 48°53' W 123°05'3 6.7
2018-Feb-16 06:59N 48°55' W 123°09'4 7.5
2018-Feb-16 06:29N 48°57' W 123°13'4 7.5
2018-Feb-16 05:58N 48°60' W 123°17'3 6.9
2018-Feb-16 05:29N 49°02' W 123°21'4 6.5
2018-Feb-16 04:53N 49°05' W 123°25'3 6.6
2018-Feb-16 04:30N 49°07' W 123°27'4 6.9
2018-Feb-16 03:58N 49°10' W 123°30'4 6.7
2018-Feb-16 03:26N 49°13' W 123°33'3 6.6
2018-Feb-16 02:58N 49°16' W 123°35'3 6.6
2018-Feb-16 02:30N 49°19' W 123°38'3 6.3
2018-Feb-16 02:00N 49°21' W 123°40'2 0.4
2018-Feb-15 20:40N 49°20' W 123°38'1 8.8
2018-Feb-15 20:30N 49°18' W 123°37'6 8.5
2018-Feb-15 19:46N 49°14' W 123°31'3 8.2
2018-Feb-15 19:21N 49°11' W 123°28'4 7.7
2018-Feb-15 18:50N 49°07' W 123°25'3 7.6
2018-Feb-15 18:29N 49°05' W 123°23'4 7.3
2018-Feb-15 17:55N 49°02' W 123°18'3 7.6
2018-Feb-15 17:28N 49°00' W 123°14'4 7.7
2018-Feb-15 17:00N 48°58' W 123°10'11 8.3
2018-Feb-15 15:41N 48°51' W 122°57'2 8.6
2018-Feb-15 15:29N 48°50' W 122°55'6 8.8
2018-Feb-15 14:51N 48°46' W 122°48'3 9.0
2018-Feb-15 14:30N 48°44' W 122°45'5 9.5
2018-Feb-15 14:00N 48°40' W 122°42'4 8.5
2018-Feb-15 13:30N 48°36' W 122°45'510.6
2018-Feb-15 13:00N 48°31' W 122°44'510.2
2018-Feb-15 12:30N 48°26' W 122°44'5 9.3
2018-Feb-15 12:00N 48°21' W 122°45'5 8.4
2018-Feb-15 11:27N 48°17' W 122°47'3 7.2
2018-Feb-15 11:00N 48°13' W 122°48'17 5.5
2018-Feb-15 07:53N 47°59' W 122°35'3 7.5
2018-Feb-15 07:30N 47°57' W 122°31'4 7.9
2018-Feb-15 07:00N 47°54' W 122°28'4 8.9
2018-Feb-15 06:30N 47°49' W 122°26'5 9.1
2018-Feb-15 06:00N 47°45' W 122°26'4 8.9
2018-Feb-15 05:30N 47°40' W 122°27'4 8.5
2018-Feb-15 05:00N 47°37' W 122°24'3 5.6
2018-Feb-15 04:30N 47°34' W 122°21'0 0.0
2018-Feb-15 04:00N 47°34' W 122°21'0 0.7
2018-Feb-15 03:30N 47°34' W 122°21'0 0.0
2018-Feb-14 16:02N 47°34' W 122°21'0 0.0
2018-Feb-14 16:00N 47°34' W 122°21'1 1.8
2018-Feb-14 15:31N 47°33' W 122°21'0 0.0
2018-Feb-14 15:01N 47°33' W 122°21'1 2.4
2018-Feb-14 14:29N 47°34' W 122°21'2 3.6
2018-Feb-14 14:00N 47°36' W 122°22'2 3.7
2018-Feb-14 13:31N 47°37' W 122°24'3 5.1
2018-Feb-14 13:00N 47°39' W 122°27'2 4.3
2018-Feb-14 12:30N 47°41' W 122°28'2 4.5
2018-Feb-14 12:00N 47°43' W 122°28'3 5.1
2018-Feb-14 11:30N 47°46' W 122°27'3 5.2
2018-Feb-14 11:00N 47°48' W 122°28'2 5.0
2018-Feb-14 10:31N 47°51' W 122°29'3 5.5
2018-Feb-14 10:01N 47°53' W 122°30'3 5.9
2018-Feb-14 09:30N 47°56' W 122°32'4 7.2
2018-Feb-14 08:58N 47°59' W 122°36'31 5.0
2018-Feb-14 02:47N 48°18' W 123°12'2 4.2
2018-Feb-14 02:22N 48°19' W 123°15'2 3.8
2018-Feb-14 01:57N 48°20' W 123°17'1 0.2
2018-Feb-13 21:05N 48°21' W 123°17'35 9.9
2018-Feb-13 17:31N 47°59' W 122°35'112.3
2018-Feb-13 17:24N 47°58' W 122°34'411.5
2018-Feb-13 17:00N 47°55' W 122°29'611.7
2018-Feb-13 16:31N 47°49' W 122°26'611.3
2018-Feb-13 16:00N 47°44' W 122°26'611.3
2018-Feb-13 15:31N 47°38' W 122°26'  
Track history (hours):
 
Tides and Currents Weather Stations Pressure Air Temp Water Temp Dewpoint Dewpoint Depression Visibility Wind Speed Wind Dir Waves Ship Positions

Pacific

Owner: WESTERN TOWBOAT CO, SEATTLE, WA. More information available from US FCC via Universal Licensing System and Coast Guard Vessel Documentation Center.

Last reported at 2018-Feb-19 20:35 UTC. Time now 2018-Feb-20 04:23 UTC.
Position N 47°09' W 122°39'.

; draft 4 m.

Type: Tug. MMSI: 366980170.

Date/timePositionNaut miles runAvg speedWind from/ knotsBaromVisibWave heightAir tempDewpointWater temp
2018-Feb-19 20:35N 47°09' W 122°39'1 8.3
2018-Feb-19 20:30N 47°10' W 122°38'4 7.4
2018-Feb-19 20:00N 47°13' W 122°35'3 6.6
2018-Feb-19 19:30N 47°16' W 122°33'3 5.8
2018-Feb-19 19:01N 47°19' W 122°34'3 6.8
2018-Feb-19 18:31N 47°22' W 122°32'4 7.6
2018-Feb-19 18:00N 47°26' W 122°31'4 7.8
2018-Feb-19 17:31N 47°30' W 122°29'4 9.0
2018-Feb-19 17:01N 47°34' W 122°27'4 7.5
2018-Feb-19 16:30N 47°36' W 122°22'3 5.8
2018-Feb-19 16:00N 47°33' W 122°20'1 2.6
2018-Feb-19 15:30N 47°32' W 122°19'2 4.6
2018-Feb-19 15:01N 47°34' W 122°21'0 0.0
2018-Feb-19 14:31N 47°34' W 122°21'0 0.0
2018-Feb-19 14:00N 47°34' W 122°21'  
2018-Feb-17 03:02N 47°34' W 122°21'0 0.0
2018-Feb-17 03:00N 47°34' W 122°21'2 3.0
2018-Feb-17 02:29N 47°33' W 122°20'2 3.5
2018-Feb-17 02:00N 47°34' W 122°21'2 3.8
2018-Feb-17 01:30N 47°36' W 122°22'2 3.5
2018-Feb-17 01:00N 47°37' W 122°24'2 4.4
2018-Feb-17 00:30N 47°39' W 122°27'3 5.3
2018-Feb-17 00:00N 47°41' W 122°28'3 5.7
2018-Feb-16 23:30N 47°44' W 122°28'3 5.7
2018-Feb-16 23:00N 47°47' W 122°27'3 5.6
2018-Feb-16 22:30N 47°49' W 122°28'3 6.2
2018-Feb-16 22:00N 47°52' W 122°29'3 5.9
2018-Feb-16 21:30N 47°55' W 122°31'3 6.3
2018-Feb-16 21:00N 47°57' W 122°35'26 4.8
2018-Feb-16 15:31N 48°22' W 122°46'0 6.5
2018-Feb-16 15:29N 48°22' W 122°46'3 6.1
2018-Feb-16 15:00N 48°25' W 122°45'3 5.6
2018-Feb-16 14:30N 48°28' W 122°45'2 4.7
2018-Feb-16 14:00N 48°30' W 122°45'2 4.2
2018-Feb-16 13:30N 48°32' W 122°45'2 3.6
2018-Feb-16 13:00N 48°34' W 122°46'1 2.1
2018-Feb-16 12:30N 48°35' W 122°45'1 2.1
2018-Feb-16 12:00N 48°36' W 122°45'2 3.3
2018-Feb-16 11:30N 48°38' W 122°44'2 3.6
2018-Feb-16 11:00N 48°39' W 122°44'2 3.8
2018-Feb-16 10:30N 48°41' W 122°44'2 4.6
2018-Feb-16 09:59N 48°43' W 122°46'3 5.8
2018-Feb-16 09:30N 48°45' W 122°49'4 6.5
2018-Feb-16 08:48N 48°48' W 122°55'7 6.4
2018-Feb-16 07:44N 48°52' W 123°03'2 6.2
2018-Feb-16 07:28N 48°53' W 123°05'3 6.7
2018-Feb-16 06:59N 48°55' W 123°09'4 7.5
2018-Feb-16 06:29N 48°57' W 123°13'4 7.5
2018-Feb-16 05:58N 48°60' W 123°17'3 6.9
2018-Feb-16 05:29N 49°02' W 123°21'4 6.5
2018-Feb-16 04:53N 49°05' W 123°25'3 6.6
2018-Feb-16 04:30N 49°07' W 123°27'4 6.9
2018-Feb-16 03:58N 49°10' W 123°30'4 6.7
2018-Feb-16 03:26N 49°13' W 123°33'3 6.6
2018-Feb-16 02:58N 49°16' W 123°35'3 6.6
2018-Feb-16 02:30N 49°19' W 123°38'3 6.3
2018-Feb-16 02:00N 49°21' W 123°40'2 0.4
2018-Feb-15 20:40N 49°20' W 123°38'1 8.8
2018-Feb-15 20:30N 49°18' W 123°37'6 8.5
2018-Feb-15 19:46N 49°14' W 123°31'3 8.2
2018-Feb-15 19:21N 49°11' W 123°28'4 7.7
2018-Feb-15 18:50N 49°07' W 123°25'3 7.6
2018-Feb-15 18:29N 49°05' W 123°23'4 7.3
2018-Feb-15 17:55N 49°02' W 123°18'3 7.6
2018-Feb-15 17:28N 49°00' W 123°14'4 7.7
2018-Feb-15 17:00N 48°58' W 123°10'11 8.3
2018-Feb-15 15:41N 48°51' W 122°57'2 8.6
2018-Feb-15 15:29N 48°50' W 122°55'6 8.8
2018-Feb-15 14:51N 48°46' W 122°48'3 9.0
2018-Feb-15 14:30N 48°44' W 122°45'5 9.5
2018-Feb-15 14:00N 48°40' W 122°42'4 8.5
2018-Feb-15 13:30N 48°36' W 122°45'510.6
2018-Feb-15 13:00N 48°31' W 122°44'510.2
2018-Feb-15 12:30N 48°26' W 122°44'5 9.3
2018-Feb-15 12:00N 48°21' W 122°45'5 8.4
2018-Feb-15 11:27N 48°17' W 122°47'3 7.2
2018-Feb-15 11:00N 48°13' W 122°48'17 5.5
2018-Feb-15 07:53N 47°59' W 122°35'3 7.5
2018-Feb-15 07:30N 47°57' W 122°31'4 7.9
2018-Feb-15 07:00N 47°54' W 122°28'4 8.9
2018-Feb-15 06:30N 47°49' W 122°26'5 9.1
2018-Feb-15 06:00N 47°45' W 122°26'4 8.9
2018-Feb-15 05:30N 47°40' W 122°27'4 8.5
2018-Feb-15 05:00N 47°37' W 122°24'3 5.6
2018-Feb-15 04:30N 47°34' W 122°21'0 0.0
2018-Feb-15 04:00N 47°34' W 122°21'0 0.7
2018-Feb-15 03:30N 47°34' W 122°21'0 0.0
2018-Feb-14 16:02N 47°34' W 122°21'0 0.0
2018-Feb-14 16:00N 47°34' W 122°21'1 1.8
2018-Feb-14 15:31N 47°33' W 122°21'0 0.0
2018-Feb-14 15:01N 47°33' W 122°21'1 2.4
2018-Feb-14 14:29N 47°34' W 122°21'2 3.6
2018-Feb-14 14:00N 47°36' W 122°22'2 3.7
2018-Feb-14 13:31N 47°37' W 122°24'3 5.1
2018-Feb-14 13:00N 47°39' W 122°27'2 4.3
2018-Feb-14 12:30N 47°41' W 122°28'2 4.5
2018-Feb-14 12:00N 47°43' W 122°28'3 5.1
2018-Feb-14 11:30N 47°46' W 122°27'3 5.2
2018-Feb-14 11:00N 47°48' W 122°28'2 5.0
2018-Feb-14 10:31N 47°51' W 122°29'3 5.5
2018-Feb-14 10:01N 47°53' W 122°30'3 5.9
2018-Feb-14 09:30N 47°56' W 122°32'4 7.2
2018-Feb-14 08:58N 47°59' W 122°36'31 5.0
2018-Feb-14 02:47N 48°18' W 123°12'2 4.2
2018-Feb-14 02:22N 48°19' W 123°15'2 3.8
2018-Feb-14 01:57N 48°20' W 123°17'1 0.2
2018-Feb-13 21:05N 48°21' W 123°17'35 9.9
2018-Feb-13 17:31N 47°59' W 122°35'112.3
2018-Feb-13 17:24N 47°58' W 122°34'411.5
2018-Feb-13 17:00N 47°55' W 122°29'611.7
2018-Feb-13 16:31N 47°49' W 122°26'611.3
2018-Feb-13 16:00N 47°44' W 122°26'611.3
2018-Feb-13 15:31N 47°38' W 122°26'  

Dump ship's entire track history